Nearby METAR Reports

 

KSJC - San Jose, California, USA
Distance from station: NE 9mi, 14km
Updated: Mon, 18-Oct-2021 1:53pm MDT
Mostly cloudy
Mostly cloudy
 Wind from varies
Wind: varies 6 mph , 9 km/h
Temperature: 61°F , 16°C
Dew Point: 45°F , 7°C
Humidity: 55%
Barometer: 30.04 inHg , 1017.3 hPa
Clouds: Mostly cloudy
Visibility: 10 miles , 16 km
Cloud details: Few Clouds 3000 ft
Partly cloudy 3800 ft
Mostly cloudy 5500 ft
2021/10/18 19:53 KSJC 181953Z VRB05KT 10SM FEW030 SCT038 BKN055 16/07 A3004 RMK AO2 SLP173 T01610067
KNUQ - Moffett Nas/Mtn, California, USA
Distance from station: N 9mi, 14km
Updated: Mon, 18-Oct-2021 2:35pm MDT
Few Clouds
Few Clouds
 Wind from WNW
Wind: WNW 5 mph , 7 km/h
Temperature: 63°F , 17°C
Dew Point: 45°F , 7°C
Humidity: 52%
Barometer: 30.03 inHg , 1016.9 hPa
Clouds: Few Clouds
Visibility: 10 miles , 16 km
Cloud details: Few Clouds 4100 ft
Few Clouds 5500 ft
2021/10/18 20:35 KNUQ 182035Z AUTO 29004KT 10SM FEW041 FEW055 17/07 A3003 RMK AO2
 
KPAO - Palo Alto, California, USA
Distance from station: NNW 14mi, 23km
Updated: Mon, 18-Oct-2021 2:47pm MDT
Mostly cloudy
Mostly cloudy
 Wind from NNW
Wind: NNW 9 mph , 15 km/h
Temperature: 59°F , 15°C
Dew Point: 46°F , 8°C
Humidity: 63%
Barometer: 30.02 inHg , 1016.6 hPa
Clouds: Mostly cloudy
Visibility: 10 miles , 16 km
Cloud details: Mostly cloudy 3500 ft
2021/10/18 20:47 KPAO 182047Z 34008KT 10SM BKN035 15/08 A3002
KRHV - San Jose/Reid, California, USA
Distance from station: ENE 12mi, 19km
Updated: Mon, 18-Oct-2021 2:24pm MDT
Mostly cloudy
Mostly cloudy
 Wind from W
Wind: W 8 mph , 13 km/h
Temperature: 63°F , 17°C
Dew Point: 43°F , 6°C
Humidity: 49%
Barometer: 30.05 inHg , 1017.6 hPa
Clouds: Mostly cloudy
Visibility: 10 miles , 16 km
Cloud details: Mostly cloudy 3500 ft
2021/10/18 20:24 KRHV 182024Z 28007KT 10SM BKN035 17/06 A3005
 
KOAK - Oakland, California, USA
Distance from station: NNW 31mi, 50km
Updated: Mon, 18-Oct-2021 2:27pm MDT
Partly cloudy
Partly cloudy
 Wind from W
Wind: W 10 mph , 17 km/h
Temperature: 63°F , 17°C
Dew Point: 46°F , 8°C
Humidity: 56%
Barometer: 30.04 inHg , 1017.3 hPa
Clouds: Partly cloudy
Visibility: 10 miles , 16 km
Cloud details: Partly cloudy 2500 ft
2021/10/18 20:27 KOAK 182027Z 27009KT 10SM SCT025 17/08 A3004 RMK AO2 T01670083
KSQL - San Carlos Airpo, California, USA
Distance from station: NW 21mi, 34km
Updated: Mon, 18-Oct-2021 1:47pm MDT
Mostly cloudy
Mostly cloudy
 Wind from NW
Wind: NW 7 mph , 11 km/h
Temperature: 59°F , 15°C
Dew Point: 45°F , 7°C
Humidity: 59%
Barometer: 30.05 inHg , 1017.6 hPa
Clouds: Mostly cloudy
Visibility: 10 miles , 16 km
Cloud details: Mostly cloudy 2600 ft
2021/10/18 19:47 KSQL 181947Z 32006KT 10SM BKN026 15/07 A3005
 
KSFO - San Francisco, California, USA
Distance from station: NW 30mi, 49km
Updated: Mon, 18-Oct-2021 1:56pm MDT
Partly cloudy
Partly cloudy
 Wind from WNW
Wind: WNW 13 mph , 20 km/h
Temperature: 61°F , 16°C
Dew Point: 46°F , 8°C
Humidity: 59%
Barometer: 30.04 inHg , 1017.3 hPa
Clouds: Partly cloudy
Visibility: 10 miles , 16 km
Cloud details: Few Clouds 2600 ft
Partly cloudy 5500 ft
2021/10/18 19:56 KSFO 181956Z 30011KT 10SM FEW026 SCT055 16/08 A3004 RMK AO2 SLP172 T01560078
KE16 - San Martin, California, USA
Distance from station: ESE 27mi, 43km
Updated: Mon, 18-Oct-2021 2:35pm MDT
Partly cloudy
Partly cloudy
 Wind from NNW
Wind: NNW 10 mph , 17 km/h, Gust: 16 mph , 26 km/h
Temperature: 61°F , 16°C
Dew Point: 39°F , 4°C
Humidity: 45%
Barometer: 30.04 inHg , 1017.3 hPa
Clouds: Partly cloudy
Visibility: 10 miles , 16 km
Cloud details: Partly cloudy 6000 ft
2021/10/18 20:35 KE16 182035Z AUTO 33009G14KT 10SM SCT060 16/04 A3004 RMK AO2 PWINO PNO
 
KWVI - Watsonville, California, USA
Distance from station: SSE 27mi, 44km
Updated: Mon, 18-Oct-2021 1:53pm MDT
Mostly cloudy
Mostly cloudy
 Wind from WSW
Wind: WSW 10 mph , 17 km/h, Gust: 18 mph , 30 km/h
Temperature: 59°F , 15°C
Dew Point: 46°F , 8°C
Humidity: 63%
Barometer: 30.06 inHg , 1017.9 hPa
Clouds: Mostly cloudy
Visibility: 10 miles , 16 km
Cloud details: Mostly cloudy 6000 ft
2021/10/18 19:53 KWVI 181953Z AUTO 24009G16KT 10SM BKN060 15/08 A3006 RMK AO2 SLP178 T01500078
KHAF - Half Moon Bay, California, USA
Distance from station: WNW 31mi, 50km
Updated: Mon, 18-Oct-2021 2:35pm MDT
Mostly cloudy
Mostly cloudy
 Wind from NW
Wind: NW 8 mph , 13 km/h
Temperature: 57°F , 14°C
Dew Point: 50°F , 10°C
Humidity: 77%
Barometer: 30.05 inHg , 1017.6 hPa
Clouds: Mostly cloudy
Visibility: 9 miles , 14 km
Cloud details: Partly cloudy 1700 ft
Mostly cloudy 2300 ft
2021/10/18 20:35 KHAF 182035Z AUTO 31007KT 280V340 9SM SCT017 BKN023 14/10 A3005 RMK AO2
 
KHWD - Hayward, California, USA
Distance from station: N 28mi, 44km
Updated: Mon, 18-Oct-2021 1:54pm MDT
Mostly cloudy
Mostly cloudy
 Wind from W
Wind: W 10 mph , 17 km/h
Temperature: 61°F , 16°C
Dew Point: 46°F , 8°C
Humidity: 59%
Barometer: 30.04 inHg , 1017.3 hPa
Clouds: Mostly cloudy
Visibility: 10 miles , 16 km
Cloud details: Few Clouds 2500 ft
Mostly cloudy 3400 ft
2021/10/18 19:54 KHWD 181954Z 28009KT 10SM FEW025 BKN034 16/08 A3004 RMK AO2 SLP183 T01610078
KLVK - Livermore, California, USA
Distance from station: NNE 31mi, 51km
Updated: Mon, 18-Oct-2021 1:53pm MDT
Mostly cloudy
Mostly cloudy
 Wind from W
Wind: W 13 mph , 20 km/h
Temperature: 61°F , 16°C
Dew Point: 43°F , 6°C
Humidity: 52%
Barometer: 30.03 inHg , 1016.9 hPa
Clouds: Mostly cloudy
Visibility: 10 miles , 16 km
Cloud details: Mostly cloudy 3700 ft
Mostly cloudy 4800 ft
2021/10/18 19:53 KLVK 181953Z 27011KT 10SM BKN037 BKN048 16/06 A3003 RMK AO2 SLP166 T01560056